createdAt,value
2023-05-01T00:00:18.144Z,19.2138
2023-05-01T00:01:20.714Z,19.1574
2023-05-01T00:02:22.937Z,19.1319
2023-05-01T00:03:25.385Z,19.1599
2023-05-01T00:04:27.514Z,19.1750
2023-05-01T00:05:29.851Z,19.1796
2023-05-01T00:06:32.260Z,19.2793
2023-05-01T00:07:34.556Z,19.3217
2023-05-01T00:08:36.871Z,19.2616
2023-05-01T00:09:39.238Z,19.2178
2023-05-01T00:10:41.574Z,19.1705
2023-05-01T00:11:43.899Z,19.1759
2023-05-01T00:12:46.384Z,19.2317
2023-05-01T00:13:48.588Z,19.2241
2023-05-01T00:14:50.909Z,19.1411
2023-05-01T00:15:53.427Z,19.0749
2023-05-01T00:16:55.773Z,18.9616
2023-05-01T00:17:57.950Z,18.8941
2023-05-01T00:19:00.266Z,18.8599
2023-05-01T00:20:02.618Z,18.7872
2023-05-01T00:21:04.948Z,18.7050
2023-05-01T00:22:07.326Z,18.7189
2023-05-01T00:23:10.231Z,18.8781
2023-05-01T00:24:11.995Z,18.9587
2023-05-01T00:25:14.309Z,18.9385
2023-05-01T00:26:16.651Z,18.9239
2023-05-01T00:27:19.195Z,18.8684
2023-05-01T00:28:21.339Z,18.8682
2023-05-01T00:29:23.711Z,18.8430
2023-05-01T00:30:26.026Z,18.8393
2023-05-01T00:31:29.877Z,18.6372
2023-05-01T00:32:30.719Z,18.5823
2023-05-01T00:33:33.784Z,18.5132
2023-05-01T00:34:35.404Z,18.3622
2023-05-01T00:35:37.760Z,18.2807
2023-05-01T00:36:40.068Z,18.2638
2023-05-01T00:37:42.736Z,18.3281
2023-05-01T00:38:44.725Z,18.4122
2023-05-01T00:39:47.160Z,18.4841
2023-05-01T00:40:49.426Z,18.5201
2023-05-01T00:41:52.272Z,18.5179
2023-05-01T00:42:54.121Z,18.5134
2023-05-01T00:43:56.418Z,18.4672
2023-05-01T00:44:58.759Z,18.4741
2023-05-01T00:46:01.149Z,18.4652
2023-05-01T00:47:03.511Z,18.4113
2023-05-01T00:48:07.712Z,18.3506
2023-05-01T00:49:08.116Z,18.1763
2023-05-01T00:50:10.455Z,18.1854
2023-05-01T00:51:12.793Z,18.2445
2023-05-01T00:52:15.193Z,18.1662
2023-05-01T00:53:17.631Z,18.0833
2023-05-01T00:54:19.790Z,17.9603
2023-05-01T00:55:22.153Z,17.9615
2023-05-01T00:56:24.469Z,17.9399
2023-05-01T00:57:26.820Z,17.8557
2023-05-01T00:58:29.144Z,17.8353
2023-05-01T00:59:31.768Z,17.7932
2023-05-01T01:00:34.493Z,17.7436
2023-05-01T01:01:36.180Z,17.6839
2023-05-01T01:02:38.629Z,17.6687
2023-05-01T01:03:40.827Z,17.6948
2023-05-01T01:04:43.168Z,17.6621
2023-05-01T01:05:45.534Z,17.6050
2023-05-01T01:06:48.367Z,17.5418
2023-05-01T01:07:50.174Z,17.5229
2023-05-01T01:08:52.561Z,17.5719
2023-05-01T01:09:55.129Z,17.6597
2023-05-01T01:10:57.221Z,17.6170
2023-05-01T01:11:59.569Z,17.5483
2023-05-01T01:13:01.901Z,17.5638
2023-05-01T01:14:04.279Z,17.5578
2023-05-01T01:15:06.747Z,17.5851
2023-05-01T01:16:08.986Z,17.5382
2023-05-01T01:17:11.433Z,17.5003
2023-05-01T01:18:13.617Z,17.4605
2023-05-01T01:19:15.973Z,17.4265
2023-05-01T01:20:18.206Z,17.4082
2023-05-01T01:21:20.564Z,17.3927
2023-05-01T01:22:23.107Z,17.3788
2023-05-01T01:23:25.331Z,17.3418
2023-05-01T01:24:27.576Z,17.3041
2023-05-01T01:25:29.900Z,17.2911
2023-05-01T01:26:32.332Z,17.2938
2023-05-01T01:27:34.655Z,17.3325
2023-05-01T01:28:36.938Z,17.3526
2023-05-01T01:29:39.256Z,17.3309
2023-05-01T01:30:41.633Z,17.4416
2023-05-01T01:31:44.055Z,17.5311
2023-05-01T01:32:46.367Z,17.4935
2023-05-01T01:33:48.563Z,17.4627
2023-05-01T01:34:50.949Z,17.4208
2023-05-01T01:35:53.271Z,17.4110
2023-05-01T01:36:55.674Z,17.4038
2023-05-01T01:37:57.923Z,17.3568
2023-05-01T01:39:00.277Z,17.4633
2023-05-01T01:40:02.686Z,17.5834
2023-05-01T01:41:04.950Z,17.5531
2023-05-01T01:42:07.280Z,17.5622
2023-05-01T01:43:09.810Z,17.6338
2023-05-01T01:44:12.010Z,17.5954
2023-05-01T01:45:14.316Z,17.5547
2023-05-01T01:46:16.629Z,17.4985
2023-05-01T01:47:18.986Z,17.4852
2023-05-01T01:48:21.290Z,17.4743
2023-05-01T01:49:23.735Z,17.3881
2023-05-01T01:50:26.091Z,17.4087
2023-05-01T01:51:28.490Z,17.3701
2023-05-01T01:52:30.699Z,17.4500
2023-05-01T01:53:32.974Z,17.4840
2023-05-01T01:54:35.352Z,17.5604
2023-05-01T01:55:37.671Z,17.6607
2023-05-01T01:56:39.954Z,17.7654
2023-05-01T01:57:42.349Z,17.7029
2023-05-01T01:58:44.654Z,17.7076
2023-05-01T01:59:47.003Z,17.7386
2023-05-01T02:00:49.402Z,17.6258
2023-05-01T02:01:51.889Z,17.5468
2023-05-01T02:02:54.112Z,17.5266
2023-05-01T02:03:56.630Z,17.6156
2023-05-01T02:04:58.768Z,17.6617
2023-05-01T02:06:01.100Z,17.5688
2023-05-01T02:07:03.494Z,17.5037
2023-05-01T02:08:05.705Z,17.4811
2023-05-01T02:09:08.039Z,17.5710
2023-05-01T02:10:10.596Z,17.6491
2023-05-01T02:11:12.823Z,17.6568
2023-05-01T02:12:15.026Z,17.6973
2023-05-01T02:13:17.476Z,17.6503
2023-05-01T02:14:19.667Z,17.5626
2023-05-01T02:15:22.077Z,17.5313
2023-05-01T02:16:24.678Z,17.4296
2023-05-01T02:17:26.812Z,17.3525
2023-05-01T02:18:29.097Z,17.2945
2023-05-01T02:19:31.394Z,17.2571
2023-05-01T02:20:33.952Z,17.2174
2023-05-01T02:21:36.070Z,17.1967
2023-05-01T02:22:38.998Z,17.1777
2023-05-01T02:23:41.198Z,17.1433
2023-05-01T02:24:43.094Z,17.1438
2023-05-01T02:25:45.368Z,17.2961
2023-05-01T02:26:47.938Z,17.3025
2023-05-01T02:27:50.063Z,17.3620
2023-05-01T02:28:52.504Z,17.3778
2023-05-01T02:29:55.440Z,17.3342
2023-05-01T02:30:57.169Z,17.3271
2023-05-01T02:31:59.565Z,17.2475
2023-05-01T02:33:01.970Z,17.1739
2023-05-01T02:34:04.160Z,17.2131
2023-05-01T02:35:06.598Z,17.2391
2023-05-01T02:36:08.857Z,17.3887
2023-05-01T02:37:11.332Z,17.4629
2023-05-01T02:38:13.508Z,17.4383
2023-05-01T02:39:15.969Z,17.3506
2023-05-01T02:40:18.217Z,17.3125
2023-05-01T02:41:20.518Z,17.4092
2023-05-01T02:42:22.915Z,17.4775
2023-05-01T02:43:25.466Z,17.4797
2023-05-01T02:44:27.570Z,17.4597
2023-05-01T02:45:29.989Z,17.4175
2023-05-01T02:46:32.213Z,17.3677
2023-05-01T02:47:34.618Z,17.3158
2023-05-01T02:48:36.904Z,17.2606
2023-05-01T02:49:39.233Z,17.1858
2023-05-01T02:50:41.645Z,17.1218
2023-05-01T02:51:43.963Z,17.0299
2023-05-01T02:52:46.240Z,16.9444
2023-05-01T02:53:48.585Z,16.8701
2023-05-01T02:54:50.972Z,16.9151
2023-05-01T02:55:53.264Z,17.1068
2023-05-01T02:56:55.606Z,17.2605
2023-05-01T02:57:57.932Z,17.2000
2023-05-01T02:59:00.508Z,17.1455
2023-05-01T03:00:02.686Z,17.0748
2023-05-01T03:01:04.988Z,17.0917
2023-05-01T03:02:07.284Z,17.0380
2023-05-01T03:03:09.700Z,16.9582
2023-05-01T03:04:12.029Z,17.0152
2023-05-01T03:05:14.307Z,17.0433
2023-05-01T03:06:16.759Z,17.0401
2023-05-01T03:07:18.995Z,16.9776
2023-05-01T03:08:21.325Z,16.9945
2023-05-01T03:09:23.682Z,16.9653
2023-05-01T03:10:26.027Z,16.9357
2023-05-01T03:11:28.473Z,16.9262
2023-05-01T03:12:30.744Z,16.8987
2023-05-01T03:13:33.031Z,16.8152
2023-05-01T03:14:35.371Z,16.7900
2023-05-01T03:15:37.721Z,16.7798
2023-05-01T03:16:40.140Z,16.7985
2023-05-01T03:17:42.467Z,16.7080
2023-05-01T03:18:44.719Z,16.7050
2023-05-01T03:19:47.124Z,16.6445
2023-05-01T03:20:49.395Z,16.6415
2023-05-01T03:21:51.755Z,16.6562
2023-05-01T03:22:54.092Z,16.6135
2023-05-01T03:23:56.414Z,16.5742
2023-05-01T03:24:58.757Z,16.5625
2023-05-01T03:26:01.099Z,16.6649
2023-05-01T03:27:03.458Z,16.6825
2023-05-01T03:28:05.763Z,16.6440
2023-05-01T03:29:08.109Z,16.6313
2023-05-01T03:30:10.431Z,16.5853
2023-05-01T03:31:12.774Z,16.5502
2023-05-01T03:32:15.248Z,16.5403
2023-05-01T03:33:17.516Z,16.6661
2023-05-01T03:34:19.758Z,16.7115
2023-05-01T03:35:22.138Z,16.7449
2023-05-01T03:36:24.437Z,16.7382
2023-05-01T03:37:26.801Z,16.7250
2023-05-01T03:38:29.130Z,16.6672
2023-05-01T03:39:31.454Z,16.6404
2023-05-01T03:40:33.794Z,16.6349
2023-05-01T03:41:36.125Z,16.6613
2023-05-01T03:42:38.489Z,16.6392
2023-05-01T03:43:40.807Z,16.7161
2023-05-01T03:44:43.140Z,16.7840
2023-05-01T03:45:45.513Z,16.7581
2023-05-01T03:46:47.837Z,16.7502
2023-05-01T03:47:50.220Z,16.7070
2023-05-01T03:48:52.502Z,16.6776
2023-05-01T03:49:54.920Z,16.7534
2023-05-01T03:50:57.193Z,16.8018
2023-05-01T03:51:59.495Z,16.8432
2023-05-01T03:53:01.923Z,16.8191
2023-05-01T03:54:04.210Z,16.7167
2023-05-01T03:55:06.518Z,16.6795
2023-05-01T03:56:08.868Z,16.6569
2023-05-01T03:57:11.201Z,16.6101
2023-05-01T03:58:13.552Z,16.5761
2023-05-01T03:59:15.928Z,16.5275
2023-05-01T04:00:18.230Z,16.5344
2023-05-01T04:01:20.551Z,16.5328
2023-05-01T04:02:22.986Z,16.5789
2023-05-01T04:03:25.382Z,16.5814
2023-05-01T04:04:27.589Z,16.5825
2023-05-01T04:05:29.912Z,16.5969
2023-05-01T04:06:32.386Z,16.5995
2023-05-01T04:07:34.587Z,16.6165
2023-05-01T04:08:36.958Z,16.7398
2023-05-01T04:09:39.254Z,16.7369
2023-05-01T04:10:41.675Z,16.6824
2023-05-01T04:11:43.939Z,16.6167
2023-05-01T04:12:46.272Z,16.5767
2023-05-01T04:13:48.608Z,16.5497
2023-05-01T04:14:50.942Z,16.5300
2023-05-01T04:15:53.332Z,16.5337
2023-05-01T04:16:55.623Z,16.5382
2023-05-01T04:17:58.030Z,16.5799
2023-05-01T04:19:00.297Z,16.6033
2023-05-01T04:20:02.639Z,16.6371
2023-05-01T04:21:04.982Z,16.7059
2023-05-01T04:22:07.315Z,16.6982
2023-05-01T04:23:09.690Z,16.6893
2023-05-01T04:24:11.991Z,16.6576
2023-05-01T04:25:14.383Z,16.6649
2023-05-01T04:26:16.671Z,16.6580
2023-05-01T04:27:19.032Z,16.6567
2023-05-01T04:28:21.361Z,16.6667
2023-05-01T04:29:24.613Z,16.7059
2023-05-01T04:30:26.103Z,16.7641
2023-05-01T04:31:28.512Z,16.7387
2023-05-01T04:32:30.745Z,16.7336
2023-05-01T04:33:33.021Z,16.7211
2023-05-01T04:34:35.418Z,16.8072
2023-05-01T04:35:37.724Z,16.9615
2023-05-01T04:36:40.198Z,17.0492
2023-05-01T04:37:42.371Z,17.0983
2023-05-01T04:38:44.675Z,17.0887
2023-05-01T04:39:47.023Z,17.0569
2023-05-01T04:40:49.495Z,17.0402
2023-05-01T04:41:51.737Z,17.0181
2023-05-01T04:42:54.022Z,17.0693
2023-05-01T04:43:56.367Z,17.1963
2023-05-01T04:44:58.708Z,17.1717
2023-05-01T04:46:01.063Z,17.1342
2023-05-01T04:47:03.469Z,17.1049
2023-05-01T04:48:05.791Z,17.0626
2023-05-01T04:49:08.060Z,17.0476
2023-05-01T04:50:10.415Z,17.0109
2023-05-01T04:51:12.721Z,16.9571
2023-05-01T04:52:15.112Z,16.9227
2023-05-01T04:53:17.525Z,16.8992
2023-05-01T04:54:19.736Z,17.0351
2023-05-01T04:55:22.175Z,17.1315
2023-05-01T04:56:24.411Z,17.0796
2023-05-01T04:57:26.754Z,16.9985
2023-05-01T04:58:29.158Z,16.8988
2023-05-01T04:59:31.553Z,16.8616
2023-05-01T05:00:33.885Z,16.9104
2023-05-01T05:01:36.177Z,16.9409
2023-05-01T05:02:38.608Z,16.9235
2023-05-01T05:03:40.876Z,16.9272
2023-05-01T05:04:43.144Z,16.8996
2023-05-01T05:05:45.603Z,16.8455
2023-05-01T05:06:47.894Z,16.8951
2023-05-01T05:07:50.155Z,16.9050
2023-05-01T05:08:52.479Z,16.9163
2023-05-01T05:09:55.058Z,16.9148
2023-05-01T05:10:57.871Z,16.8687
2023-05-01T05:11:59.678Z,16.8421
2023-05-01T05:13:01.858Z,16.9167
2023-05-01T05:14:04.272Z,17.1078
2023-05-01T05:15:06.667Z,17.2437
2023-05-01T05:16:08.976Z,17.2344
2023-05-01T05:17:11.380Z,17.2456
2023-05-01T05:18:13.642Z,17.2063
2023-05-01T05:19:15.852Z,17.1761
2023-05-01T05:20:18.257Z,17.2289
2023-05-01T05:21:20.581Z,17.2572
2023-05-01T05:22:22.866Z,17.1856
2023-05-01T05:23:25.229Z,17.1453
2023-05-01T05:24:27.588Z,17.1408
2023-05-01T05:25:29.882Z,17.1210
2023-05-01T05:26:32.257Z,17.0849
2023-05-01T05:27:34.628Z,17.0436
2023-05-01T05:28:36.911Z,17.0406
2023-05-01T05:29:39.346Z,17.0189
2023-05-01T05:30:41.561Z,17.0558
2023-05-01T05:31:43.950Z,17.1023
2023-05-01T05:32:46.296Z,17.0660
2023-05-01T05:33:48.666Z,17.1155
2023-05-01T05:34:51.125Z,17.2800
2023-05-01T05:35:53.244Z,17.3659
2023-05-01T05:36:55.716Z,17.4252
2023-05-01T05:37:57.965Z,17.3861
2023-05-01T05:39:00.337Z,17.4112
2023-05-01T05:40:02.623Z,17.4852
2023-05-01T05:41:04.950Z,17.4680
2023-05-01T05:42:07.298Z,17.4434
2023-05-01T05:43:09.674Z,17.5373
2023-05-01T05:44:12.167Z,17.5776
2023-05-01T05:45:14.468Z,17.5181
2023-05-01T05:46:16.795Z,17.4780
2023-05-01T05:47:19.161Z,17.5133
2023-05-01T05:48:21.505Z,17.6317
2023-05-01T05:49:23.732Z,17.7225
2023-05-01T05:50:26.059Z,17.7541
2023-05-01T05:51:28.560Z,17.8074
2023-05-01T05:52:30.685Z,17.8151
2023-05-01T05:53:33.061Z,17.7492
2023-05-01T05:54:35.376Z,17.6734
2023-05-01T05:55:37.723Z,17.6824
2023-05-01T05:56:40.050Z,17.7784
2023-05-01T05:57:42.515Z,17.8455
2023-05-01T05:58:44.733Z,17.8522
2023-05-01T05:59:47.067Z,17.8003
2023-05-01T06:00:49.434Z,17.8060
2023-05-01T06:01:51.753Z,17.8372
2023-05-01T06:02:54.142Z,17.7475
2023-05-01T06:03:56.562Z,17.7152
2023-05-01T06:04:58.783Z,17.7568
2023-05-01T06:06:01.462Z,17.8612
2023-05-01T06:07:03.481Z,17.7990
2023-05-01T06:08:05.818Z,17.6871
2023-05-01T06:09:08.131Z,17.6442
2023-05-01T06:10:10.467Z,17.6383
2023-05-01T06:11:12.857Z,17.6238
2023-05-01T06:12:15.170Z,17.5814
2023-05-01T06:13:17.526Z,17.5784
2023-05-01T06:14:19.851Z,17.4920
2023-05-01T06:15:22.356Z,17.5824
2023-05-01T06:16:24.614Z,17.5876
2023-05-01T06:17:26.871Z,17.5160
2023-05-01T06:18:29.182Z,17.5570
2023-05-01T06:19:31.569Z,17.4978
2023-05-01T06:20:33.863Z,17.4372
2023-05-01T06:21:36.358Z,17.4377
2023-05-01T06:22:38.582Z,17.5088
2023-05-01T06:23:40.873Z,17.6487
2023-05-01T06:24:43.220Z,17.6639
2023-05-01T06:25:45.568Z,17.7404
2023-05-01T06:26:47.898Z,17.8033
2023-05-01T06:27:50.375Z,17.7948
2023-05-01T06:28:52.598Z,17.7665
2023-05-01T06:29:55.144Z,17.7833
2023-05-01T06:30:57.254Z,17.8593
2023-05-01T06:31:59.797Z,17.8603
2023-05-01T06:33:01.941Z,17.9351
2023-05-01T06:34:04.266Z,17.9253
2023-05-01T06:35:06.682Z,17.8535
2023-05-01T06:36:09.233Z,17.8411
2023-05-01T06:37:11.358Z,17.8606
2023-05-01T06:38:13.832Z,17.9416
2023-05-01T06:39:16.014Z,18.0234
2023-05-01T06:40:18.461Z,18.0140
2023-05-01T06:41:20.775Z,18.0672
2023-05-01T06:42:23.211Z,17.9598
2023-05-01T06:43:25.387Z,17.8886
2023-05-01T06:44:27.724Z,17.8500
2023-05-01T06:45:30.156Z,17.8374
2023-05-01T06:46:32.442Z,17.8293
2023-05-01T06:47:34.916Z,17.8419
2023-05-01T06:48:37.271Z,17.9478
2023-05-01T06:49:39.503Z,18.0642
2023-05-01T06:50:41.752Z,18.0475
2023-05-01T06:51:44.145Z,18.0756
2023-05-01T06:52:46.419Z,18.1483
2023-05-01T06:53:48.834Z,18.1952
2023-05-01T06:54:51.099Z,18.1327
2023-05-01T06:55:53.426Z,18.1161
2023-05-01T06:56:55.968Z,17.9612
2023-05-01T06:57:59.757Z,17.9619
2023-05-01T06:59:00.467Z,18.0339
2023-05-01T07:00:02.844Z,18.0885
2023-05-01T07:01:05.152Z,18.0787
2023-05-01T07:02:07.548Z,18.1081
2023-05-01T07:03:09.886Z,18.1964
2023-05-01T07:04:12.298Z,18.0958
2023-05-01T07:05:14.515Z,18.0680
2023-05-01T07:06:16.936Z,18.0771
2023-05-01T07:07:19.159Z,18.0983
2023-05-01T07:08:21.534Z,18.1446
2023-05-01T07:09:23.872Z,18.1725
2023-05-01T07:10:26.238Z,18.1860
2023-05-01T07:11:28.552Z,18.2199
2023-05-01T07:12:30.845Z,18.2719
2023-05-01T07:13:33.215Z,18.2829
2023-05-01T07:14:35.586Z,18.2607
2023-05-01T07:15:37.867Z,18.2659
2023-05-01T07:16:40.328Z,18.2690
2023-05-01T07:17:42.567Z,18.2795
2023-05-01T07:18:44.956Z,18.2592
2023-05-01T07:19:47.250Z,18.2143
2023-05-01T07:20:49.601Z,18.1980
2023-05-01T07:21:51.879Z,18.1982
2023-05-01T07:22:54.245Z,18.2183
2023-05-01T07:23:56.585Z,18.2221
2023-05-01T07:24:58.933Z,18.2083
2023-05-01T07:26:01.255Z,18.1161
2023-05-01T07:27:03.594Z,18.0806
2023-05-01T07:28:05.906Z,18.1356
2023-05-01T07:29:08.243Z,18.1427
2023-05-01T07:30:10.580Z,18.1718
2023-05-01T07:31:12.933Z,18.1930
2023-05-01T07:32:15.345Z,18.1554
2023-05-01T07:33:17.644Z,18.1145
2023-05-01T07:34:19.969Z,18.0835
2023-05-01T07:35:22.264Z,18.0874
2023-05-01T07:36:24.730Z,18.0668
2023-05-01T07:37:27.011Z,18.1025
2023-05-01T07:38:29.247Z,18.1727
2023-05-01T07:39:31.575Z,18.1536
2023-05-01T07:40:33.923Z,18.1730
2023-05-01T07:41:36.272Z,18.1200
2023-05-01T07:42:38.596Z,18.1710
2023-05-01T07:43:40.917Z,18.2294
2023-05-01T07:44:43.256Z,18.2003
2023-05-01T07:45:45.717Z,18.1665
2023-05-01T07:46:47.929Z,18.1604
2023-05-01T07:47:50.348Z,18.1959
2023-05-01T07:48:52.613Z,18.2415
2023-05-01T07:49:55.334Z,18.2024
2023-05-01T07:50:57.367Z,18.1902
2023-05-01T07:51:59.618Z,18.1140
2023-05-01T07:53:02.156Z,18.0385
2023-05-01T07:54:04.395Z,17.9963
2023-05-01T07:55:06.620Z,18.0265
2023-05-01T07:56:09.078Z,18.0078
2023-05-01T07:57:11.297Z,17.9815
2023-05-01T07:58:13.678Z,17.9981
2023-05-01T07:59:15.968Z,17.9725
2023-05-01T08:00:18.303Z,18.0041
2023-05-01T08:01:20.643Z,18.1137
2023-05-01T08:02:23.183Z,18.1298
2023-05-01T08:03:25.494Z,18.0790
2023-05-01T08:04:27.662Z,18.1625
2023-05-01T08:05:30.035Z,18.1138
2023-05-01T08:06:32.402Z,18.0575
2023-05-01T08:07:34.660Z,18.0436
2023-05-01T08:08:37.037Z,18.1275
2023-05-01T08:09:39.332Z,18.1637
2023-05-01T08:10:41.675Z,18.1308
2023-05-01T08:11:44.007Z,18.1696
2023-05-01T08:12:46.405Z,18.2230
2023-05-01T08:13:48.689Z,18.2160
2023-05-01T08:14:51.021Z,18.2600
2023-05-01T08:15:53.381Z,18.3009
2023-05-01T08:16:55.726Z,18.3093
2023-05-01T08:17:58.075Z,18.3169
2023-05-01T08:19:00.420Z,18.3027
2023-05-01T08:20:02.716Z,18.2645
2023-05-01T08:21:05.110Z,18.2994
2023-05-01T08:22:07.412Z,18.2672
2023-05-01T08:23:09.730Z,18.2714
2023-05-01T08:24:12.069Z,18.2423
2023-05-01T08:25:14.391Z,18.2573
2023-05-01T08:26:16.730Z,18.3087
2023-05-01T08:27:19.068Z,18.3196
2023-05-01T08:28:21.524Z,18.3252
2023-05-01T08:29:23.763Z,17.9438
2023-05-01T08:30:26.125Z,17.7313
2023-05-01T08:31:28.474Z,17.7845
2023-05-01T08:32:30.796Z,17.8680
2023-05-01T08:33:33.074Z,17.9348
2023-05-01T08:34:35.422Z,18.0276
2023-05-01T08:35:37.898Z,18.1549
2023-05-01T08:36:40.237Z,18.3021
2023-05-01T08:37:42.453Z,18.2598
2023-05-01T08:38:44.749Z,18.2546
2023-05-01T08:39:47.102Z,18.3215
2023-05-01T08:40:49.420Z,18.2603
2023-05-01T08:41:51.748Z,18.1117
2023-05-01T08:42:54.108Z,18.1366
2023-05-01T08:43:56.421Z,18.1802
2023-05-01T08:44:58.772Z,18.1954
2023-05-01T08:46:01.111Z,18.2398
2023-05-01T08:47:03.509Z,18.2303
2023-05-01T08:48:05.788Z,18.0285
2023-05-01T08:49:08.300Z,17.9268
2023-05-01T08:50:10.437Z,17.8204
2023-05-01T08:51:12.834Z,17.8809
2023-05-01T08:52:15.090Z,17.8908
2023-05-01T08:53:17.436Z,17.9754
2023-05-01T08:54:19.769Z,18.0016
2023-05-01T08:55:22.168Z,18.0661
2023-05-01T08:56:24.528Z,18.0725
2023-05-01T08:57:26.755Z,18.1015
2023-05-01T08:58:29.249Z,18.1072
2023-05-01T08:59:31.442Z,18.1165
2023-05-01T09:00:33.779Z,18.2250
2023-05-01T09:01:36.137Z,18.2365
2023-05-01T09:02:38.516Z,18.2561
2023-05-01T09:03:40.949Z,18.1764
2023-05-01T09:04:43.196Z,18.0056
2023-05-01T09:05:45.480Z,17.8958
2023-05-01T09:06:47.865Z,17.8868
2023-05-01T09:07:50.105Z,17.8047
2023-05-01T09:08:52.446Z,17.7575
2023-05-01T09:09:55.042Z,17.8161
2023-05-01T09:10:57.152Z,17.8854
2023-05-01T09:11:59.488Z,17.9170
2023-05-01T09:13:01.821Z,17.8987
2023-05-01T09:14:04.144Z,17.8714
2023-05-01T09:15:06.475Z,17.8827
2023-05-01T09:16:08.964Z,17.9042
2023-05-01T09:17:11.141Z,17.7920
2023-05-01T09:18:13.534Z,17.8601
2023-05-01T09:19:15.791Z,17.7816
2023-05-01T09:20:18.151Z,17.5832
2023-05-01T09:21:20.481Z,17.5353
2023-05-01T09:22:22.807Z,17.5672
2023-05-01T09:23:25.154Z,17.5898
2023-05-01T09:24:27.498Z,17.6549
2023-05-01T09:25:29.816Z,17.7122
2023-05-01T09:26:32.165Z,17.6581
2023-05-01T09:27:34.505Z,17.3752
2023-05-01T09:28:36.856Z,17.4055
2023-05-01T09:29:39.228Z,17.4604
2023-05-01T09:30:41.478Z,17.4401
2023-05-01T09:31:43.892Z,17.5046
2023-05-01T09:32:46.187Z,17.6742
2023-05-01T09:33:48.532Z,17.7666
2023-05-01T09:34:50.907Z,17.8336
2023-05-01T09:35:53.251Z,17.8647
2023-05-01T09:36:55.559Z,17.7892
2023-05-01T09:37:57.859Z,17.8435
2023-05-01T09:39:00.176Z,17.8239
2023-05-01T09:40:02.541Z,17.6776
2023-05-01T09:41:04.841Z,17.6750
2023-05-01T09:42:07.257Z,17.7215
2023-05-01T09:43:11.220Z,17.8361
2023-05-01T09:44:11.869Z,17.8824
2023-05-01T09:45:14.292Z,17.9379
2023-05-01T09:46:16.657Z,18.0286
2023-05-01T09:47:18.876Z,18.1025
2023-05-01T09:48:21.198Z,18.0951
2023-05-01T09:49:23.575Z,18.0143
2023-05-01T09:50:25.891Z,17.9028
2023-05-01T09:51:28.222Z,17.9235
2023-05-01T09:52:30.567Z,17.8988
2023-05-01T09:53:32.876Z,17.8226
2023-05-01T09:54:35.212Z,17.7861
2023-05-01T09:55:37.546Z,17.8262
2023-05-01T09:56:39.881Z,17.7199
2023-05-01T09:57:42.266Z,17.5330
2023-05-01T09:58:44.637Z,17.5087
2023-05-01T09:59:46.890Z,17.6344
2023-05-01T10:00:49.268Z,17.7533
2023-05-01T10:01:51.634Z,17.8740
2023-05-01T10:02:54.092Z,18.0152
2023-05-01T10:03:56.680Z,18.1798
2023-05-01T10:04:58.755Z,18.2273
2023-05-01T10:06:01.184Z,18.2363
2023-05-01T10:07:03.280Z,17.9550
2023-05-01T10:08:05.605Z,17.9857
2023-05-01T10:09:07.930Z,18.1002
2023-05-01T10:10:10.256Z,18.2064
2023-05-01T10:11:12.604Z,18.2483
2023-05-01T10:12:14.930Z,18.2567
2023-05-01T10:13:17.303Z,18.2912
2023-05-01T10:14:19.604Z,18.3467
2023-05-01T10:15:26.323Z,18.4313
2023-05-01T10:16:24.327Z,18.4070
2023-05-01T10:17:26.664Z,18.4505
2023-05-01T10:18:28.991Z,18.5226
2023-05-01T10:19:31.306Z,18.5676
2023-05-01T10:20:33.645Z,18.5645
2023-05-01T10:21:35.962Z,18.5734
2023-05-01T10:22:38.306Z,18.6967
2023-05-01T10:23:40.636Z,18.7664
2023-05-01T10:24:42.985Z,18.7412
2023-05-01T10:25:45.328Z,18.6820
2023-05-01T10:26:47.639Z,18.7467
2023-05-01T10:27:49.976Z,18.8100
2023-05-01T10:28:52.312Z,18.8383
2023-05-01T10:29:54.996Z,18.7482
2023-05-01T10:30:57.038Z,18.7590
2023-05-01T10:31:59.399Z,18.8078
2023-05-01T10:33:01.678Z,18.8247
2023-05-01T10:34:03.999Z,18.7814
2023-05-01T10:35:06.355Z,18.7289
2023-05-01T10:36:08.679Z,18.8476
2023-05-01T10:37:11.000Z,18.9506
2023-05-01T10:38:13.361Z,19.0588
2023-05-01T10:39:15.678Z,19.0888
2023-05-01T10:40:18.095Z,19.0827
2023-05-01T10:41:20.430Z,18.9849
2023-05-01T10:42:23.003Z,19.0452
2023-05-01T10:43:25.097Z,19.0309
2023-05-01T10:44:27.460Z,19.0317
2023-05-01T10:45:29.782Z,19.1024
2023-05-01T10:46:32.180Z,19.1045
2023-05-01T10:47:34.471Z,19.1609
2023-05-01T10:48:36.796Z,19.2891
2023-05-01T10:49:39.121Z,19.3588
2023-05-01T10:50:41.488Z,19.3990
2023-05-01T10:51:43.869Z,19.4617
2023-05-01T10:52:46.151Z,19.5275
2023-05-01T10:53:48.475Z,19.6348
2023-05-01T10:54:50.826Z,19.7113
2023-05-01T10:55:53.147Z,19.8765
2023-05-01T10:56:55.503Z,19.9867
2023-05-01T10:57:57.837Z,20.0111
2023-05-01T10:59:00.166Z,19.9764
2023-05-01T11:00:02.510Z,19.9741
2023-05-01T11:01:04.840Z,19.8850
2023-05-01T11:02:07.198Z,19.8499
2023-05-01T11:03:09.582Z,19.8219
2023-05-01T11:04:11.849Z,19.7525
2023-05-01T11:05:14.254Z,19.4852
2023-05-01T11:06:16.687Z,19.3202
2023-05-01T11:07:19.093Z,19.3349
2023-05-01T11:08:21.215Z,19.1815
2023-05-01T11:09:23.545Z,19.0123
2023-05-01T11:10:25.891Z,19.0078
2023-05-01T11:11:28.212Z,19.0325
2023-05-01T11:12:30.558Z,19.0858
2023-05-01T11:13:32.886Z,19.2021
2023-05-01T11:14:35.242Z,19.2932
2023-05-01T11:15:37.564Z,19.2503
2023-05-01T11:16:40.060Z,18.9473
2023-05-01T11:17:42.662Z,18.8987
2023-05-01T11:18:44.653Z,18.9416
2023-05-01T11:19:46.884Z,19.0479
2023-05-01T11:20:49.216Z,19.0660
2023-05-01T11:21:51.566Z,19.0868
2023-05-01T11:22:54.001Z,19.1479
2023-05-01T11:23:56.228Z,19.1484
2023-05-01T11:24:58.987Z,19.0720
2023-05-01T11:26:00.900Z,19.0461
2023-05-01T11:27:03.245Z,19.0245
2023-05-01T11:28:05.577Z,19.0734
2023-05-01T11:29:07.901Z,19.0940
2023-05-01T11:30:10.234Z,19.1278
2023-05-01T11:31:12.632Z,19.1155
2023-05-01T11:32:15.122Z,19.0652
2023-05-01T11:33:17.306Z,18.9455
2023-05-01T11:34:19.576Z,18.8407
2023-05-01T11:35:21.907Z,18.8616
2023-05-01T11:36:24.277Z,18.7579
2023-05-01T11:37:26.587Z,18.6843
2023-05-01T11:38:28.927Z,18.6637
2023-05-01T11:39:31.243Z,18.7679
2023-05-01T11:40:43.119Z,18.7989
2023-05-01T11:41:45.222Z,18.7283
2023-05-01T11:42:38.281Z,18.4458
2023-05-01T11:43:40.644Z,18.3394
2023-05-01T11:44:42.936Z,18.3201
2023-05-01T11:45:45.313Z,18.3580
2023-05-01T11:46:47.614Z,18.4523
2023-05-01T11:47:50.091Z,18.5615
2023-05-01T11:48:52.271Z,18.6704
2023-05-01T11:49:54.604Z,18.6581
2023-05-01T11:50:56.931Z,18.6794
2023-05-01T11:51:59.330Z,18.7374
2023-05-01T11:53:01.604Z,18.8127
2023-05-01T11:54:03.972Z,18.8484
2023-05-01T11:55:06.291Z,18.8484
2023-05-01T11:56:19.503Z,18.7153
2023-05-01T11:57:10.952Z,18.5173
2023-05-01T11:58:13.283Z,18.3531
2023-05-01T11:59:15.638Z,18.0624
2023-05-01T12:00:17.959Z,18.0067
2023-05-01T12:01:20.291Z,17.9051
2023-05-01T12:02:22.698Z,17.7510
2023-05-01T12:03:25.166Z,17.7408
2023-05-01T12:04:30.683Z,17.7751
2023-05-01T12:05:29.640Z,17.8108
2023-05-01T12:06:31.998Z,17.7345
2023-05-01T12:07:34.307Z,17.8358
2023-05-01T12:08:36.640Z,18.0866
2023-05-01T12:09:38.980Z,18.1565
2023-05-01T12:10:41.343Z,18.0947
2023-05-01T12:11:43.651Z,18.1163
2023-05-01T12:12:45.975Z,18.1654
2023-05-01T12:13:48.310Z,18.1453
2023-05-01T12:14:50.655Z,18.2801
2023-05-01T12:15:52.999Z,18.3845
2023-05-01T12:16:55.373Z,18.4487
2023-05-01T12:17:57.742Z,18.3332
2023-05-01T12:19:00.018Z,18.3933
2023-05-01T12:20:02.327Z,18.3552
2023-05-01T12:21:04.698Z,18.4999
2023-05-01T12:22:07.015Z,18.5006
2023-05-01T12:23:09.338Z,18.5142
2023-05-01T12:24:11.679Z,18.4726
2023-05-01T12:25:14.014Z,18.5614
2023-05-01T12:26:16.389Z,18.5582
2023-05-01T12:27:18.681Z,18.5771
2023-05-01T12:28:21.010Z,18.6677
2023-05-01T12:29:23.362Z,18.6822
2023-05-01T12:30:25.677Z,18.6414
2023-05-01T12:31:28.126Z,18.5224
2023-05-01T12:32:30.402Z,18.3064
2023-05-01T12:33:32.685Z,18.1846